Time;durP1;ratioP1;P1;durP2;ratioP2;P2;SDS_P1;SDS_P2;PMS_P1;PMS_P2;Temp;Humidity;BMP_temperature;BMP_pressure;BME280_temperature;BME280_humidity;BME280_pressure;Samples;Min_cycle;Max_cycle;Signal;HPM_P1;HPM_P2
2023/08/24 00:00:40;;;;;;;0.10;0.10;;;;;;;19.28;100.00;99254.63;5094408;28;20661;-56
2023/08/24 00:03:28;;;;;;;0.10;0.10;;;;;;;19.43;100.00;99263.00;5094844;28;20293;-56
2023/08/24 00:06:16;;;;;;;0.10;0.10;;;;;;;19.55;100.00;99261.78;5094882;28;20194;-56
2023/08/24 00:09:05;;;;;;;0.10;0.10;;;;;;;19.48;100.00;99255.31;5094899;28;20237;-56
2023/08/24 00:11:53;;;;;;;0.10;0.10;;;;;;;19.62;100.00;99270.13;5094666;28;20202;-56
2023/08/24 00:14:39;;;;;;;0.10;0.10;;;;;;;19.31;100.00;99256.19;5094655;28;20191;-56
2023/08/24 00:17:26;;;;;;;0.10;0.10;;;;;;;19.10;100.00;99264.47;5093134;28;20337;-56
2023/08/24 00:20:15;;;;;;;0.10;0.10;;;;;;;18.87;100.00;99261.34;5094543;28;20253;-56
2023/08/24 00:23:02;;;;;;;0.10;0.10;;;;;;;18.94;100.00;99266.97;5094455;28;20199;-56
2023/08/24 00:25:48;;;;;;;0.10;0.10;;;;;;;18.80;100.00;99262.94;5094401;28;20679;-56
2023/08/24 00:28:35;;;;;;;0.10;0.10;;;;;;;18.95;100.00;99255.25;5094440;28;20191;-55
2023/08/24 00:31:22;;;;;;;0.10;0.10;;;;;;;19.06;100.00;99253.19;5093134;28;20194;-56
2023/08/24 00:34:09;;;;;;;0.10;0.10;;;;;;;18.95;100.00;99252.56;5094427;28;20241;-56
2023/08/24 00:36:57;;;;;;;0.10;0.10;;;;;;;19.05;100.00;99262.25;5094002;28;20230;-56
2023/08/24 00:39:44;;;;;;;0.10;0.10;;;;;;;19.20;100.00;99259.03;5094211;28;20190;-56
2023/08/24 00:42:32;;;;;;;0.10;0.10;;;;;;;19.36;100.00;99256.56;5093191;28;20190;-56
2023/08/24 00:45:19;;;;;;;0.10;0.10;;;;;;;19.18;100.00;99259.19;5094065;28;20195;-56
2023/08/24 00:48:07;;;;;;;0.10;0.10;;;;;;;18.95;100.00;99266.81;5093825;28;20634;-56
2023/08/24 00:50:54;;;;;;;0.10;0.10;;;;;;;18.72;100.00;99262.81;5092914;28;20187;-56
2023/08/24 00:53:43;;;;;;;0.10;0.10;;;;;;;18.70;100.00;99273.69;5092842;28;20198;-56
2023/08/24 00:56:31;;;;;;;0.10;0.10;;;;;;;18.57;100.00;99274.00;5093871;28;20198;-56
2023/08/24 00:59:18;;;;;;;0.10;0.10;;;;;;;18.80;100.00;99269.13;5092217;28;20218;-56
2023/08/24 01:02:05;;;;;;;0.10;0.10;;;;;;;18.80;100.00;99281.72;5092381;28;20203;-56
2023/08/24 01:04:52;;;;;;;0.10;0.10;;;;;;;18.63;100.00;99277.13;5092663;28;20198;-57
2023/08/24 01:07:41;;;;;;;0.10;0.10;;;;;;;18.55;100.00;99275.16;5093511;28;20194;-56
2023/08/24 01:10:36;;;;;;;0.10;0.10;;;;;;;18.63;100.00;99279.78;5093611;28;20710;-56
2023/08/24 01:13:31;;;;;;;0.10;0.10;;;;;;;18.93;100.00;99287.63;5093510;28;20273;-56
2023/08/24 01:16:22;;;;;;;0.10;0.10;;;;;;;18.71;100.00;99277.22;5091132;28;20206;-56
2023/08/24 01:19:20;;;;;;;0.10;0.10;;;;;;;18.76;100.00;99281.19;5092267;28;20280;-56
2023/08/24 01:22:17;;;;;;;0.10;0.10;;;;;;;18.86;100.00;99281.97;5093445;28;20187;-56
2023/08/24 01:25:13;;;;;;;0.10;0.10;;;;;;;18.89;100.00;99286.19;5092395;28;20666;-56
2023/08/24 01:28:05;;;;;;;0.10;0.10;;;;;;;18.80;100.00;99281.72;5093485;28;20270;-56
2023/08/24 01:30:52;;;;;;;0.10;0.10;;;;;;;18.58;100.00;99288.25;5091811;28;20183;-56
2023/08/24 01:33:41;;;;;;;0.10;0.10;;;;;;;18.49;100.00;99286.47;5092221;28;20260;-56
2023/08/24 01:36:28;;;;;;;0.10;0.10;;;;;;;18.55;100.00;99294.78;5092916;28;20213;-56
2023/08/24 01:39:26;;;;;;;0.10;0.10;;;;;;;18.56;100.00;99290.25;5092753;28;20211;-56
2023/08/24 01:42:20;;;;;;;0.10;0.10;;;;;;;18.62;100.00;99294.16;5093088;28;20229;-56
2023/08/24 01:45:10;;;;;;;0.10;0.10;;;;;;;18.56;100.00;99290.25;5092114;28;20187;-56
2023/08/24 01:48:00;;;;;;;0.10;0.10;;;;;;;18.61;100.00;99282.59;5091657;28;20262;-56
2023/08/24 01:50:48;;;;;;;0.10;0.10;;;;;;;18.55;100.00;99278.69;5093065;28;20199;-56
2023/08/24 01:53:35;;;;;;;0.10;0.10;;;;;;;18.52;100.00;99278.09;5092827;28;20367;-56
2023/08/24 01:56:22;;;;;;;0.10;0.10;;;;;;;18.41;100.00;99264.88;5092024;28;20218;-56
2023/08/24 01:59:09;;;;;;;0.10;0.10;;;;;;;18.49;100.00;99278.41;5091800;28;20218;-56
2023/08/24 02:01:58;;;;;;;0.10;0.10;;;;;;;18.46;100.00;99276.03;5090354;28;20722;-56
2023/08/24 02:04:45;;;;;;;0.10;0.10;;;;;;;18.26;100.00;99261.81;5091924;28;20238;-56
2023/08/24 02:07:32;;;;;;;0.10;0.10;;;;;;;18.32;100.00;99266.59;5092933;28;20320;-56
2023/08/24 02:10:18;;;;;;;0.10;0.10;;;;;;;18.32;100.00;99271.94;5092691;28;20199;-56
2023/08/24 02:13:05;;;;;;;0.10;0.10;;;;;;;18.29;100.00;99269.56;5096130;28;20620;-57
2023/08/24 02:16:02;;;;;;;0.10;0.10;;;;;;;18.30;100.00;99276.63;5094641;28;20197;-56
2023/08/24 02:18:50;;;;;;;0.10;0.10;;;;;;;18.35;100.00;99277.03;5096378;28;20225;-56
2023/08/24 02:21:37;;;;;;;0.10;0.10;;;;;;;18.35;100.00;99270.84;5096922;28;20762;-56
2023/08/24 02:24:24;;;;;;;0.10;0.10;;;;;;;18.23;100.00;99278.19;5095854;28;20199;-56
2023/08/24 02:27:11;;;;;;;0.10;0.10;;;;;;;18.26;100.00;99284.13;5095637;28;20186;-56
2023/08/24 02:29:58;;;;;;;0.10;0.10;;;;;;;18.36;100.00;99269.84;5096746;28;20195;-56
2023/08/24 02:32:45;;;;;;;0.10;0.10;;;;;;;18.27;100.00;99290.31;5095421;28;20547;-57
2023/08/24 02:35:33;;;;;;;0.10;0.10;;;;;;;18.25;100.00;99278.91;5096280;28;20215;-56
2023/08/24 02:38:20;;;;;;;0.10;0.10;;;;;;;18.22;100.00;99277.31;5095083;28;20769;-56
2023/08/24 02:41:09;;;;;;;0.10;0.10;;;;;;;18.18;100.00;99283.13;5096487;28;20191;-56
2023/08/24 02:43:55;;;;;;;0.10;0.10;;;;;;;18.67;100.00;99284.75;5095322;28;20190;-56
2023/08/24 02:46:45;;;;;;;0.10;0.10;;;;;;;18.57;100.00;99274.00;5095096;28;20236;-56
2023/08/24 02:49:32;;;;;;;0.10;0.10;;;;;;;18.66;100.00;99275.00;5096263;28;20194;-56
2023/08/24 02:52:20;;;;;;;0.10;0.10;;;;;;;18.59;100.00;99263.97;5095114;28;20309;-56
2023/08/24 02:55:10;;;;;;;0.10;0.10;;;;;;;18.60;100.00;99262.13;5095235;28;20203;-55
2023/08/24 02:57:56;;;;;;;0.10;0.10;;;;;;;18.32;100.00;99263.91;5096111;28;20203;-56
2023/08/24 03:00:43;;;;;;;0.10;0.10;;;;;;;18.43;100.00;99266.44;5094552;28;20214;-56
2023/08/24 03:03:30;;;;;;;0.10;0.10;;;;;;;18.43;100.00;99255.72;5095968;28;20202;-56
2023/08/24 03:06:17;;;;;;;0.10;0.10;;;;;;;18.48;100.00;99255.25;5095966;28;20221;-56
2023/08/24 03:09:05;;;;;;;0.10;0.10;;;;;;;18.39;100.00;99256.13;5094978;28;20237;-56
2023/08/24 03:11:52;;;;;;;0.10;0.10;;;;;;;18.23;100.00;99256.72;5094767;28;20197;-56
2023/08/24 03:14:39;;;;;;;0.10;0.10;;;;;;;18.20;100.00;99248.97;5095790;28;20214;-56
2023/08/24 03:17:28;;;;;;;0.10;0.10;;;;;;;18.24;100.00;99253.91;5093358;28;20196;-56
2023/08/24 03:20:15;;;;;;;0.10;0.10;;;;;;;18.38;100.00;99251.75;5095487;28;20397;-56
2023/08/24 03:23:03;;;;;;;0.10;0.10;;;;;;;17.95;100.00;99253.97;5094608;28;20317;-56
2023/08/24 03:25:52;;;;;;;0.10;0.10;;;;;;;17.87;100.00;99243.13;5094590;28;20211;-56
2023/08/24 03:28:39;;;;;;;0.10;0.10;;;;;;;17.86;100.00;99252.16;5094488;28;20194;-56
2023/08/24 03:31:27;;;;;;;0.10;0.10;;;;;;;17.89;100.00;99257.22;5094212;28;20317;-56
2023/08/24 03:34:13;;;;;;;0.10;0.10;;;;;;;17.80;100.00;99259.91;5095545;28;20207;-56
2023/08/24 03:37:00;;;;;;;0.10;0.10;;;;;;;17.90;100.00;99250.84;5095216;28;20238;-56
2023/08/24 03:39:47;;;;;;;0.10;0.10;;;;;;;17.70;100.00;99252.69;5095106;28;20218;-56
2023/08/24 03:42:37;;;;;;;0.10;0.10;;;;;;;17.71;100.00;99256.22;5093923;28;20195;-56
2023/08/24 03:45:23;;;;;;;0.10;0.10;;;;;;;17.77;100.00;99260.19;5094357;28;20245;-56
2023/08/24 03:48:11;;;;;;;0.10;0.10;;;;;;;17.68;100.00;99260.00;5095310;28;20272;-56
2023/08/24 03:50:58;;;;;;;0.10;0.10;;;;;;;17.83;100.00;99254.25;5095169;28;20265;-56
2023/08/24 03:53:45;;;;;;;0.10;0.10;;;;;;;17.84;100.00;99245.22;5095182;28;20198;-56
2023/08/24 03:56:32;;;;;;;0.10;0.10;;;;;;;17.79;100.00;99240.28;5094025;28;20198;-56
2023/08/24 03:59:20;;;;;;;0.20;0.20;;;;;;;18.02;100.00;99244.34;5094057;28;20260;-56
2023/08/24 04:02:08;;;;;;;0.10;0.10;;;;;;;18.37;100.00;99240.19;5092689;28;20203;-56
2023/08/24 04:04:55;;;;;;;0.10;0.10;;;;;;;18.24;100.00;99229.78;5094775;28;20199;-56
2023/08/24 04:07:42;;;;;;;0.10;0.10;;;;;;;18.18;100.00;99226.84;5094690;28;20248;-56
2023/08/24 04:10:30;;;;;;;0.10;0.10;;;;;;;18.28;100.00;99211.56;5093730;28;20241;-56
2023/08/24 04:13:17;;;;;;;0.00;0.00;;;;;;;18.41;100.00;99211.22;5093668;28;20256;-56
2023/08/24 04:16:06;;;;;;;0.10;0.10;;;;;;;18.29;100.00;99203.38;5092364;28;20198;-56
2023/08/24 04:18:53;;;;;;;0.10;0.10;;;;;;;18.15;100.00;99205.69;5093609;28;20206;-56
2023/08/24 04:21:40;;;;;;;0.10;0.10;;;;;;;17.95;100.00;99208.41;5094070;28;20191;-56
2023/08/24 04:24:27;;;;;;;0.10;0.10;;;;;;;17.97;100.00;99201.06;5094485;28;20190;-56
2023/08/24 04:27:14;;;;;;;0.10;0.10;;;;;;;18.22;100.00;99212.97;5094361;28;20222;-56
2023/08/24 04:30:03;;;;;;;0.10;0.10;;;;;;;18.17;100.00;99212.59;5094282;28;20186;-56
2023/08/24 04:32:51;;;;;;;0.10;0.10;;;;;;;17.99;100.00;99207.13;5092917;28;20214;-56
2023/08/24 04:35:39;;;;;;;0.10;0.10;;;;;;;18.09;100.00;99198.22;5093763;28;20265;-56
2023/08/24 04:38:26;;;;;;;0.10;0.10;;;;;;;18.01;100.00;99196.25;5093708;28;20222;-56
2023/08/24 04:41:13;;;;;;;0.10;0.10;;;;;;;18.20;100.00;99192.66;5093806;28;20698;-55
2023/08/24 04:43:59;;;;;;;0.10;0.10;;;;;;;18.30;100.00;99182.75;5094047;28;20278;-56
2023/08/24 04:46:47;;;;;;;0.10;0.10;;;;;;;18.37;100.00;99183.03;5092548;28;20194;-56
2023/08/24 04:49:36;;;;;;;0.10;0.10;;;;;;;18.33;100.00;99170.88;5093828;28;20186;-56
2023/08/24 04:52:23;;;;;;;0.10;0.10;;;;;;;18.61;100.00;99169.91;5093940;28;20199;-56
2023/08/24 04:55:10;;;;;;;0.10;0.10;;;;;;;18.65;100.00;99179.41;5093683;28;20195;-56
2023/08/24 04:57:57;;;;;;;0.10;0.10;;;;;;;18.63;100.00;99189.41;5093127;28;20199;-56
2023/08/24 05:00:44;;;;;;;0.10;0.10;;;;;;;18.61;100.00;99188.69;5092078;28;20214;-56
2023/08/24 05:03:31;;;;;;;0.10;0.10;;;;;;;18.58;100.00;99205.09;5093553;28;20302;-56
2023/08/24 05:06:19;;;;;;;0.00;0.00;;;;;;;18.57;100.00;99208.78;5093434;28;20277;-56
2023/08/24 05:09:06;;;;;;;0.10;0.10;;;;;;;18.64;100.00;99227.81;5093007;28;20548;-56
2023/08/24 05:11:53;;;;;;;0.10;0.10;;;;;;;18.51;100.00;99228.13;5093248;28;20190;-56
2023/08/24 05:14:40;;;;;;;0.10;0.10;;;;;;;18.49;100.00;99244.38;5093584;28;20214;-56
2023/08/24 05:17:28;;;;;;;0.10;0.10;;;;;;;18.52;100.00;99265.53;5092319;28;20321;-56
2023/08/24 05:20:15;;;;;;;0.10;0.10;;;;;;;18.68;100.00;99274.84;5093202;28;20252;-56
2023/08/24 05:23:03;;;;;;;0.10;0.10;;;;;;;18.88;100.00;99284.50;5093378;28;20194;-56
2023/08/24 05:25:50;;;;;;;0.10;0.10;;;;;;;19.06;100.00;99295.31;5093333;28;20213;-57
2023/08/24 05:28:37;;;;;;;0.10;0.10;;;;;;;19.07;100.00;99292.47;5092609;28;20290;-56
2023/08/24 05:31:24;;;;;;;0.10;0.10;;;;;;;19.23;100.00;99297.22;5091848;28;20203;-56
2023/08/24 05:34:11;;;;;;;0.10;0.10;;;;;;;19.14;100.00;99311.53;5092790;28;20213;-56
2023/08/24 05:36:58;;;;;;;0.10;0.10;;;;;;;19.27;100.00;99313.88;5092809;28;20222;-56
2023/08/24 05:39:46;;;;;;;0.10;0.10;;;;;;;19.37;100.00;99310.13;5093149;28;20191;-56
2023/08/24 05:42:33;;;;;;;0.10;0.10;;;;;;;19.23;100.00;99310.63;5093213;28;20285;-56
2023/08/24 05:45:20;;;;;;;0.10;0.10;;;;;;;19.14;100.00;99323.13;5092925;28;20377;-56
2023/08/24 05:48:08;;;;;;;0.10;0.10;;;;;;;19.34;100.00;99312.28;5092556;28;20201;-56
2023/08/24 05:50:55;;;;;;;0.10;0.10;;;;;;;19.34;100.00;99313.13;5093000;28;20199;-56
2023/08/24 05:53:42;;;;;;;0.10;0.10;;;;;;;19.43;100.00;99317.59;5092866;28;20195;-56
2023/08/24 05:56:30;;;;;;;0.10;0.10;;;;;;;19.55;100.00;99320.91;5093003;28;20743;-56
2023/08/24 05:59:17;;;;;;;0.10;0.10;;;;;;;19.53;100.00;99322.91;5092862;28;20191;-56
2023/08/24 06:02:04;;;;;;;0.10;0.10;;;;;;;19.54;100.00;99319.22;5091073;28;20215;-57
2023/08/24 06:04:51;;;;;;;0.00;0.00;;;;;;;19.61;100.00;99304.22;5092917;28;20273;-56
2023/08/24 06:07:38;;;;;;;0.10;0.10;;;;;;;19.67;100.00;99297.38;5092803;28;20300;-56
2023/08/24 06:10:26;;;;;;;0.10;0.10;;;;;;;19.65;100.00;99296.69;5092704;28;20237;-56
2023/08/24 06:13:14;;;;;;;0.10;0.10;;;;;;;19.73;100.00;99313.75;5092619;28;20195;-57
2023/08/24 06:16:02;;;;;;;0.10;0.10;;;;;;;19.88;100.00;99324.81;5091479;28;20202;-56
2023/08/24 06:18:49;;;;;;;0.10;0.10;;;;;;;19.73;100.00;99335.25;5091670;28;20195;-56
2023/08/24 06:21:36;;;;;;;0.10;0.10;;;;;;;19.91;100.00;99332.56;5092564;28;20671;-56
2023/08/24 06:24:24;;;;;;;0.10;0.10;;;;;;;19.72;100.00;99338.09;5092616;28;20195;-56
2023/08/24 06:27:11;;;;;;;0.10;0.10;;;;;;;19.75;100.00;99337.78;5092542;28;20249;-56
2023/08/24 06:29:59;;;;;;;0.10;0.10;;;;;;;19.65;100.00;99329.78;5092505;28;20198;-56
2023/08/24 06:32:46;;;;;;;0.10;0.10;;;;;;;19.41;100.00;99322.28;5091309;28;20199;-56
2023/08/24 06:35:34;;;;;;;0.00;0.00;;;;;;;19.37;100.00;99322.72;5092449;28;20253;-56
2023/08/24 06:38:20;;;;;;;0.10;0.10;;;;;;;19.31;100.00;99320.66;5091757;28;20341;-56
2023/08/24 06:41:10;;;;;;;0.10;0.10;;;;;;;19.47;100.00;99311.91;5091411;28;20218;-57
2023/08/24 06:43:58;;;;;;;0.10;0.10;;;;;;;19.59;100.00;99281.16;5092467;28;20286;-57
2023/08/24 06:46:47;;;;;;;0.10;0.10;;;;;;;19.63;100.00;99259.22;5091210;28;20238;-57
2023/08/24 06:49:33;;;;;;;0.10;0.10;;;;;;;19.56;100.00;99278.78;5092481;28;20228;-57
2023/08/24 06:52:20;;;;;;;0.10;0.10;;;;;;;19.60;100.00;99299.00;5092308;28;20210;-57
2023/08/24 06:55:09;;;;;;;0.10;0.10;;;;;;;19.73;100.00;99297.63;5092463;28;20186;-57
2023/08/24 06:57:55;;;;;;;0.00;0.00;;;;;;;19.61;100.00;99282.72;5093753;28;20191;-57
2023/08/24 07:00:42;;;;;;;0.10;0.10;;;;;;;19.64;100.00;99278.88;5094879;28;20210;-57
2023/08/24 07:03:31;;;;;;;0.10;0.10;;;;;;;19.67;100.00;99257.91;5096094;28;20202;-57
2023/08/24 07:06:18;;;;;;;0.10;0.10;;;;;;;19.84;100.00;99253.53;5096150;28;20729;-57
2023/08/24 07:09:07;;;;;;;0.10;0.10;;;;;;;19.83;100.00;99251.00;5096161;28;20689;-57
2023/08/24 07:11:54;;;;;;;0.10;0.10;;;;;;;19.90;100.00;99247.53;5095901;28;20187;-57
2023/08/24 07:14:41;;;;;;;0.10;0.10;;;;;;;19.86;100.00;99227.31;5095933;28;20195;-57
2023/08/24 07:17:28;;;;;;;0.10;0.10;;;;;;;19.99;100.00;99213.50;5094623;28;20210;-57
2023/08/24 07:20:16;;;;;;;0.10;0.10;;;;;;;19.93;100.00;99182.69;5095800;28;20190;-57
2023/08/24 07:23:03;;;;;;;0.10;0.10;;;;;;;20.13;100.00;99180.63;5095716;28;20199;-57
2023/08/24 07:25:50;;;;;;;0.10;0.10;;;;;;;20.29;100.00;99177.22;5095697;28;20199;-57
2023/08/24 07:28:37;;;;;;;0.10;0.10;;;;;;;20.36;100.00;99177.41;5095570;28;20195;-57
2023/08/24 07:31:24;;;;;;;0.10;0.10;;;;;;;20.52;100.00;99172.13;5094259;28;20190;-57
2023/08/24 07:34:11;;;;;;;0.10;0.10;;;;;;;20.88;100.00;99175.47;5095558;28;20261;-57
2023/08/24 07:36:59;;;;;;;0.10;0.10;;;;;;;20.89;100.00;99163.69;5095284;28;20250;-57
2023/08/24 07:39:46;;;;;;;0.10;0.10;;;;;;;20.96;100.00;99162.03;5095460;28;20247;-57
2023/08/24 07:42:44;;;;;;;0.10;0.10;;;;;;;21.32;100.00;99159.94;5094914;28;20222;-57
2023/08/24 07:45:31;;;;;;;0.10;0.10;;;;;;;21.76;100.00;99146.13;5094158;28;20187;-57
2023/08/24 07:48:18;;;;;;;0.10;0.10;;;;;;;22.05;100.00;99142.91;5094884;28;20202;-57
2023/08/24 07:51:05;;;;;;;0.10;0.10;;;;;;;22.20;100.00;99143.06;5095218;28;20194;-57
2023/08/24 07:53:53;;;;;;;0.10;0.10;;;;;;;22.41;100.00;99142.50;5095280;28;20305;-57
2023/08/24 07:56:40;;;;;;;0.10;0.10;;;;;;;22.52;100.00;99140.25;5094905;28;20686;-57
2023/08/24 07:59:27;;;;;;;0.10;0.10;;;;;;;22.88;100.00;99138.94;5095011;28;20706;-57
2023/08/24 08:02:15;;;;;;;0.10;0.10;;;;;;;22.85;100.00;99129.31;5093496;28;20210;-57
2023/08/24 08:05:02;;;;;;;0.10;0.10;;;;;;;23.10;100.00;99120.06;5094857;28;20194;-57
2023/08/24 08:07:49;;;;;;;0.10;0.10;;;;;;;23.06;100.00;99115.16;5094966;28;20194;-57
2023/08/24 08:10:37;;;;;;;0.10;0.10;;;;;;;23.20;100.00;99121.69;5093804;28;20199;-57
2023/08/24 08:13:24;;;;;;;0.10;0.10;;;;;;;23.59;100.00;99118.84;5094531;28;20210;-57
2023/08/24 08:16:11;;;;;;;0.10;0.10;;;;;;;23.67;100.00;99116.09;5093468;28;20265;-57
2023/08/24 08:18:58;;;;;;;0.10;0.10;;;;;;;24.15;100.00;99109.34;5094802;28;20257;-57
2023/08/24 08:21:45;;;;;;;0.10;0.10;;;;;;;23.99;100.00;99113.06;5094272;28;20214;-57
2023/08/24 08:24:32;;;;;;;0.10;0.10;;;;;;;23.77;100.00;99113.97;5094546;28;20202;-57
2023/08/24 08:27:20;;;;;;;0.10;0.10;;;;;;;23.62;100.00;99097.69;5094599;28;20229;-57
2023/08/24 08:30:08;;;;;;;0.10;0.10;;;;;;;23.83;100.00;99096.13;5094230;28;20209;-57
2023/08/24 08:32:55;;;;;;;0.10;0.10;;;;;;;23.94;100.00;99091.13;5094427;28;20313;-57
2023/08/24 08:35:42;;;;;;;0.10;0.10;;;;;;;24.19;100.00;99082.72;5094193;28;20194;-57
2023/08/24 08:38:29;;;;;;;0.10;0.10;;;;;;;24.45;100.00;99072.28;5093794;28;20248;-57
2023/08/24 08:41:18;;;;;;;0.10;0.10;;;;;;;24.76;100.00;99068.47;5094136;28;20671;-57
2023/08/24 08:44:07;;;;;;;0.10;0.10;;;;;;;24.82;100.00;99067.72;5094086;28;20265;-57
2023/08/24 08:46:54;;;;;;;0.10;0.10;;;;;;;24.72;100.00;99076.16;5092641;28;20257;-57
2023/08/24 08:49:44;;;;;;;0.10;0.10;;;;;;;25.19;100.00;99063.97;5093912;28;20199;-57
2023/08/24 08:52:33;;;;;;;0.10;0.10;;;;;;;25.42;100.00;99052.06;5094234;28;20232;-57
2023/08/24 08:55:21;;;;;;;0.10;0.10;;;;;;;25.62;100.00;99053.03;5093838;28;20206;-57
2023/08/24 08:58:08;;;;;;;0.10;0.10;;;;;;;25.78;100.00;99057.38;5093919;28;20241;-57
2023/08/24 09:00:59;;;;;;;0.10;0.10;;;;;;;25.69;100.00;99057.50;5092562;28;20210;-57
2023/08/24 09:03:47;;;;;;;0.10;0.10;;;;;;;25.62;100.00;99064.72;5093821;28;20324;-57
2023/08/24 09:06:35;;;;;;;0.10;0.10;;;;;;;26.02;100.00;99056.88;5093632;28;20199;-57
2023/08/24 09:09:22;;;;;;;0.10;0.10;;;;;;;26.42;100.00;99073.41;5093640;28;20268;-56
2023/08/24 09:12:10;;;;;;;0.10;0.10;;;;;;;26.78;100.00;99064.97;5093601;28;20183;-57
2023/08/24 09:14:56;;;;;;;0.10;0.10;;;;;;;26.55;100.00;99057.19;5093511;28;20191;-57
2023/08/24 09:17:45;;;;;;;0.10;0.10;;;;;;;26.95;100.00;99051.84;5092128;28;20194;-57
2023/08/24 09:20:32;;;;;;;0.08;0.08;;;;;;;26.62;99.90;99044.44;5093701;28;20199;-57
2023/08/24 09:23:20;;;;;;;0.08;0.08;;;;;;;26.69;100.00;99033.59;5093251;28;20338;-57
2023/08/24 09:26:07;;;;;;;0.10;0.10;;;;;;;26.36;100.00;99047.88;5093397;28;20191;-57
2023/08/24 09:28:54;;;;;;;0.10;0.10;;;;;;;26.80;100.00;99052.84;5093360;28;20263;-57
2023/08/24 09:31:43;;;;;;;0.10;0.10;;;;;;;27.08;100.00;99049.19;5092009;28;20229;-57
2023/08/24 09:34:32;;;;;;;0.08;0.08;;;;;;;27.01;99.62;99040.13;5093270;28;20215;-57
2023/08/24 09:37:20;;;;;;;0.10;0.10;;;;;;;26.82;97.96;99031.72;5092700;28;20219;-57
2023/08/24 09:40:09;;;;;;;0.00;0.00;;;;;;;27.09;99.18;99026.38;5093177;28;20190;-57
2023/08/24 09:42:55;;;;;;;0.00;0.00;;;;;;;27.55;100.00;99014.66;5092821;28;20273;-57
2023/08/24 09:45:50;;;;;;;0.10;0.10;;;;;;;27.57;95.16;99004.41;5091742;28;20463;-57
2023/08/24 09:48:37;;;;;;;0.10;0.10;;;;;;;27.99;92.24;98997.66;5093006;28;20244;-57
2023/08/24 09:51:28;;;;;;;0.10;0.10;;;;;;;27.30;90.76;98998.97;5092774;28;20670;-57
2023/08/24 09:54:18;;;;;;;0.10;0.10;;;;;;;27.51;94.25;98983.50;5093019;28;20203;-57
2023/08/24 09:57:09;;;;;;;0.00;0.00;;;;;;;28.15;91.06;98978.09;5093121;28;20264;-57
2023/08/24 09:59:57;;;;;;;0.10;0.10;;;;;;;28.62;86.35;98972.44;5092824;28;20194;-57
2023/08/24 10:02:50;;;;;;;0.10;0.10;;;;;;;28.37;87.43;98970.47;5091576;28;20219;-57
2023/08/24 10:05:39;;;;;;;0.08;0.08;;;;;;;28.33;89.79;98966.53;5091837;28;20260;-57
2023/08/24 10:08:50;;;;;;;0.00;0.00;;;;;;;28.82;87.51;98961.41;5092917;28;20203;-57
2023/08/24 10:11:43;;;;;;;0.10;0.10;;;;;;;29.10;87.66;98961.84;5092816;28;20549;-57
2023/08/24 10:14:34;;;;;;;0.00;0.00;;;;;;;28.85;84.64;98960.94;5092591;28;20276;-57
2023/08/24 10:17:23;;;;;;;0.10;0.10;;;;;;;29.62;83.07;98952.34;5091466;28;20294;-57
2023/08/24 10:20:11;;;;;;;0.00;0.00;;;;;;;30.30;76.84;98953.25;5092671;28;20191;-57
2023/08/24 10:23:00;;;;;;;0.00;0.00;;;;;;;29.54;77.24;98940.91;5092473;28;20339;-57
2023/08/24 10:25:53;;;;;;;0.10;0.10;;;;;;;29.46;82.41;98941.16;5092821;28;20202;-57
2023/08/24 10:28:41;;;;;;;0.00;0.00;;;;;;;29.64;80.41;98928.41;5092736;28;20198;-57
2023/08/24 10:31:30;;;;;;;0.00;0.00;;;;;;;30.03;78.10;98936.34;5091419;28;20276;-58
2023/08/24 10:34:17;;;;;;;0.00;0.00;;;;;;;30.27;74.59;98940.88;5096149;28;20203;-57
2023/08/24 10:37:09;;;;;;;0.00;0.00;;;;;;;30.81;73.95;98941.00;5096375;28;20249;-57
2023/08/24 10:39:56;;;;;;;0.00;0.00;;;;;;;31.92;67.13;98937.34;5096581;28;20305;-58
2023/08/24 10:42:49;;;;;;;0.00;0.00;;;;;;;32.00;65.19;98917.78;5096138;28;20218;-58
2023/08/24 10:45:57;;;;;;;0.00;0.00;;;;;;;34.25;54.51;98925.00;5094945;28;20194;-56
2023/08/24 10:49:00;;;;;;;0.00;0.00;;;;;;;34.98;48.04;98932.69;5096037;28;20202;-56
2023/08/24 10:51:47;;;;;;;0.00;0.00;;;;;;;35.16;47.71;98934.22;5096364;28;20225;-56
2023/08/24 10:54:44;;;;;;;0.00;0.00;;;;;;;35.49;47.56;98926.75;5096217;28;20190;-56
2023/08/24 10:57:36;;;;;;;0.00;0.00;;;;;;;33.69;51.37;98933.38;5096172;28;20198;-56
2023/08/24 11:00:27;;;;;;;0.00;0.00;;;;;;;32.41;53.90;98940.53;5095350;28;20671;-58
2023/08/24 11:03:32;;;;;;;0.00;0.00;;;;;;;32.98;55.72;98949.56;5095935;28;20218;-57
2023/08/24 11:06:20;;;;;;;0.00;0.00;;;;;;;33.61;53.58;98944.81;5096046;28;20190;-56
2023/08/24 11:09:13;;;;;;;0.00;0.00;;;;;;;33.85;53.11;98937.16;5096035;28;20221;-56
2023/08/24 11:12:01;;;;;;;0.00;0.00;;;;;;;33.33;52.76;98945.72;5096029;28;20237;-56
2023/08/24 11:14:54;;;;;;;0.00;0.00;;;;;;;33.58;54.63;98946.13;5095782;28;20720;-56
2023/08/24 11:17:43;;;;;;;0.00;0.00;;;;;;;33.29;54.22;98952.78;5094538;28;20717;-56
2023/08/24 11:20:31;;;;;;;0.00;0.00;;;;;;;32.22;58.33;98950.00;5095876;28;20187;-56
2023/08/24 11:23:19;;;;;;;0.00;0.00;;;;;;;31.36;63.85;98957.97;5095458;28;20618;-56
2023/08/24 11:26:06;;;;;;;0.00;0.00;;;;;;;31.66;64.87;98959.75;5095686;28;20261;-56
2023/08/24 11:28:54;;;;;;;0.00;0.00;;;;;;;32.18;62.33;98944.19;5095750;28;20209;-55
2023/08/24 11:31:41;;;;;;;0.00;0.00;;;;;;;32.49;56.71;98936.56;5094167;28;20268;-56
2023/08/24 11:34:30;;;;;;;0.00;0.00;;;;;;;33.01;56.36;98929.88;5095483;28;20281;-55
2023/08/24 11:37:20;;;;;;;0.00;0.00;;;;;;;32.98;57.40;98919.38;5095295;28;20225;-56
2023/08/24 11:40:17;;;;;;;0.00;0.00;;;;;;;32.88;56.52;98923.84;5095353;28;20203;-56
2023/08/24 11:43:05;;;;;;;0.00;0.00;;;;;;;31.94;59.64;98923.38;5094076;28;20211;-55
2023/08/24 11:45:51;;;;;;;0.00;0.00;;;;;;;32.52;58.74;98914.13;5092955;28;20325;-56
2023/08/24 11:48:39;;;;;;;0.00;0.00;;;;;;;32.87;55.70;98912.03;5095285;28;20190;-55
2023/08/24 11:51:27;;;;;;;0.00;0.00;;;;;;;33.62;52.90;98898.94;5095236;28;20195;-56
2023/08/24 11:54:28;;;;;;;0.00;0.00;;;;;;;34.58;49.58;98897.34;5094960;28;20271;-56
2023/08/24 11:57:15;;;;;;;0.00;0.00;;;;;;;35.65;45.57;98891.84;5095193;28;20194;-56
2023/08/24 12:00:04;;;;;;;0.00;0.00;;;;;;;35.94;43.78;98875.72;5095004;28;20203;-56
2023/08/24 12:02:51;;;;;;;0.00;0.00;;;;;;;35.86;45.36;98863.25;5094702;28;20198;-56
2023/08/24 12:05:37;;;;;;;0.00;0.00;;;;;;;35.52;46.62;98863.69;5094907;28;20190;-56
2023/08/24 12:08:26;;;;;;;0.00;0.00;;;;;;;35.75;45.71;98867.06;5095056;28;20206;-56
2023/08/24 12:11:14;;;;;;;0.00;0.00;;;;;;;36.43;41.43;98870.63;5094561;28;20257;-56
2023/08/24 12:14:01;;;;;;;0.00;0.00;;;;;;;36.80;42.31;98864.03;5094705;28;20332;-56
2023/08/24 12:16:53;;;;;;;0.00;0.00;;;;;;;37.85;40.67;98866.91;5093453;28;20329;-56
2023/08/24 12:19:43;;;;;;;0.00;0.00;;;;;;;38.12;38.56;98860.09;5094504;28;20253;-56
2023/08/24 12:22:30;;;;;;;0.00;0.00;;;;;;;38.78;37.55;98865.22;5094666;28;20306;-56
2023/08/24 12:25:19;;;;;;;0.00;0.00;;;;;;;40.11;35.51;98862.69;5094275;28;20349;-56
2023/08/24 12:28:11;;;;;;;0.00;0.00;;;;;;;40.13;35.57;98865.16;5094528;28;20202;-56
2023/08/24 12:31:00;;;;;;;0.00;0.00;;;;;;;39.45;35.69;98855.16;5093094;28;20707;-56
2023/08/24 12:33:58;;;;;;;0.00;0.00;;;;;;;39.47;36.20;98845.44;5094379;28;20199;-56
2023/08/24 12:36:46;;;;;;;0.00;0.00;;;;;;;39.48;34.98;98849.03;5094233;28;20309;-56
2023/08/24 12:39:37;;;;;;;0.00;0.00;;;;;;;39.12;35.55;98837.53;5093862;28;20198;-56
2023/08/24 12:42:25;;;;;;;0.00;0.00;;;;;;;39.24;36.87;98826.84;5094102;28;20194;-56
2023/08/24 12:45:11;;;;;;;0.00;0.00;;;;;;;39.38;36.39;98827.81;5093914;28;20227;-56
2023/08/24 12:47:58;;;;;;;0.00;0.00;;;;;;;39.09;36.46;98830.59;5094189;28;20262;-56
2023/08/24 12:50:45;;;;;;;0.00;0.00;;;;;;;37.77;39.39;98826.00;5093888;28;20202;-56
2023/08/24 12:53:32;;;;;;;0.00;0.00;;;;;;;37.37;40.14;98826.97;5094106;28;20312;-56
2023/08/24 12:56:19;;;;;;;0.00;0.00;;;;;;;37.23;40.15;98822.00;5093518;28;20573;-56
2023/08/24 12:59:08;;;;;;;0.00;0.00;;;;;;;37.75;39.56;98819.91;5093725;28;20182;-56
2023/08/24 13:01:55;;;;;;;0.00;0.00;;;;;;;38.78;38.55;98820.91;5092536;28;20190;-56
2023/08/24 13:04:43;;;;;;;0.00;0.00;;;;;;;38.24;37.63;98835.72;5093548;28;20213;-56